createdAt,value
2022-12-24T00:00:13.613Z,86.68
2022-12-24T00:02:41.116Z,87.51
2022-12-24T00:05:08.969Z,87.25
2022-12-24T00:07:36.173Z,87.30
2022-12-24T00:10:04.944Z,87.40
2022-12-24T00:12:32.669Z,87.33
2022-12-24T00:14:59.970Z,86.98
2022-12-24T00:17:27.035Z,86.85
2022-12-24T00:19:53.918Z,86.78
2022-12-24T00:22:20.992Z,86.86
2022-12-24T00:24:47.886Z,87.20
2022-12-24T00:27:15.079Z,88.28
2022-12-24T00:29:42.245Z,88.29
2022-12-24T00:32:10.446Z,87.99
2022-12-24T00:34:38.218Z,88.10
2022-12-24T00:37:05.696Z,88.39
2022-12-24T00:39:33.202Z,88.18
2022-12-24T00:42:00.292Z,88.10
2022-12-24T00:44:27.222Z,88.26
2022-12-24T00:46:54.398Z,88.19
2022-12-24T00:49:21.804Z,88.84
2022-12-24T00:51:49.470Z,89.04
2022-12-24T00:54:16.381Z,89.02
2022-12-24T00:56:43.595Z,88.79
2022-12-24T00:59:10.385Z,88.23
2022-12-24T01:01:37.756Z,88.75
2022-12-24T01:04:23.472Z,88.96
2022-12-24T01:06:50.267Z,89.02
2022-12-24T01:09:17.049Z,88.38
2022-12-24T01:11:44.020Z,88.91
2022-12-24T01:14:10.716Z,88.84
2022-12-24T01:16:37.584Z,88.19
2022-12-24T01:19:04.515Z,88.18
2022-12-24T01:21:31.293Z,87.97
2022-12-24T01:23:58.022Z,88.18
2022-12-24T01:26:25.181Z,88.21
2022-12-24T01:28:52.007Z,87.71
2022-12-24T01:31:20.195Z,88.81
2022-12-24T01:33:48.742Z,88.58
2022-12-24T01:36:15.676Z,89.00
2022-12-24T01:38:42.366Z,88.25
2022-12-24T01:41:34.521Z,88.24
2022-12-24T01:44:17.672Z,88.78
2022-12-24T01:46:45.139Z,88.43
2022-12-24T01:49:14.285Z,88.73
2022-12-24T01:51:45.287Z,88.51
2022-12-24T01:54:21.075Z,89.03
2022-12-24T01:56:52.443Z,89.08
2022-12-24T01:59:21.241Z,89.57
2022-12-24T02:01:49.865Z,89.91
2022-12-24T02:04:39.496Z,89.88
2022-12-24T02:07:06.397Z,89.89
2022-12-24T02:09:34.649Z,89.56
2022-12-24T02:12:01.997Z,89.79
2022-12-24T02:14:32.398Z,90.00
2022-12-24T02:17:06.957Z,89.25
2022-12-24T02:19:41.595Z,89.54
2022-12-24T02:22:20.121Z,89.50
2022-12-24T02:25:11.015Z,89.64
2022-12-24T02:27:54.541Z,89.49
2022-12-24T02:30:22.879Z,90.03
2022-12-24T02:32:57.503Z,89.71
2022-12-24T02:35:30.298Z,89.79
2022-12-24T02:38:06.087Z,90.02
2022-12-24T02:41:26.025Z,90.13
2022-12-24T02:43:55.110Z,89.69
2022-12-24T02:46:26.602Z,90.37
2022-12-24T02:48:53.907Z,90.17
2022-12-24T02:51:24.761Z,89.64
2022-12-24T02:53:51.707Z,90.16
2022-12-24T02:56:36.489Z,90.29
2022-12-24T02:59:05.921Z,89.98
2022-12-24T03:01:38.885Z,90.34
2022-12-24T03:04:42.441Z,90.89
2022-12-24T03:07:21.320Z,91.00
2022-12-24T03:10:14.379Z,90.92
2022-12-24T03:13:12.470Z,91.90
2022-12-24T03:15:39.824Z,90.97
2022-12-24T03:18:08.714Z,90.12
2022-12-24T03:20:47.953Z,89.94
2022-12-24T03:23:15.096Z,89.97
2022-12-24T03:25:43.425Z,89.83
2022-12-24T03:28:14.097Z,90.36
2022-12-24T03:30:43.017Z,89.73
2022-12-24T03:33:10.539Z,89.49
2022-12-24T03:35:37.297Z,89.63
2022-12-24T03:38:04.570Z,89.92
2022-12-24T03:40:31.436Z,89.55
2022-12-24T03:42:58.577Z,89.37
2022-12-24T03:45:25.306Z,89.48
2022-12-24T03:47:52.160Z,89.32
2022-12-24T03:50:18.967Z,90.01
2022-12-24T03:52:45.867Z,88.99
2022-12-24T03:55:12.564Z,89.57
2022-12-24T03:57:39.364Z,89.97
2022-12-24T04:00:07.034Z,89.32
2022-12-24T04:02:38.849Z,89.56
2022-12-24T04:05:06.678Z,89.67
2022-12-24T04:07:34.083Z,89.57
2022-12-24T04:10:00.914Z,89.38
2022-12-24T04:12:27.598Z,89.65
2022-12-24T04:14:54.456Z,90.10
2022-12-24T04:17:21.173Z,89.99
2022-12-24T04:19:47.956Z,90.09
2022-12-24T04:22:14.693Z,89.56
2022-12-24T04:24:41.388Z,89.88
2022-12-24T04:27:08.233Z,89.55
2022-12-24T04:29:35.545Z,89.71
2022-12-24T04:32:02.366Z,89.79
2022-12-24T04:34:29.234Z,89.72
2022-12-24T04:36:55.972Z,89.86
2022-12-24T04:39:22.940Z,89.71
2022-12-24T04:41:49.634Z,89.94
2022-12-24T04:44:16.425Z,89.78
2022-12-24T04:46:43.125Z,90.02
2022-12-24T04:49:10.967Z,89.68
2022-12-24T04:51:37.975Z,89.23
2022-12-24T04:54:04.701Z,89.06
2022-12-24T04:56:32.757Z,89.21
2022-12-24T04:59:00.701Z,89.19
2022-12-24T05:01:30.377Z,88.51
2022-12-24T05:03:58.050Z,88.99
2022-12-24T05:06:27.839Z,89.47
2022-12-24T05:08:56.024Z,89.32
2022-12-24T05:11:22.833Z,89.71
2022-12-24T05:13:49.684Z,89.52
2022-12-24T05:16:18.421Z,89.40
2022-12-24T05:18:45.505Z,89.44
2022-12-24T05:21:17.649Z,89.29
2022-12-24T05:24:03.115Z,89.49
2022-12-24T05:26:37.351Z,89.26
2022-12-24T05:29:05.900Z,89.56
2022-12-24T05:31:34.147Z,90.11
2022-12-24T05:34:01.812Z,89.93
2022-12-24T05:36:28.836Z,90.12
2022-12-24T05:38:55.666Z,89.46
2022-12-24T05:41:22.401Z,89.29
2022-12-24T05:43:49.189Z,89.85
2022-12-24T05:46:19.154Z,89.85
2022-12-24T05:48:46.464Z,89.71
2022-12-24T05:51:14.616Z,89.88
2022-12-24T05:53:41.661Z,89.07
2022-12-24T05:56:14.759Z,89.29
2022-12-24T05:58:42.632Z,89.84
2022-12-24T06:01:10.235Z,89.71
2022-12-24T06:03:37.650Z,89.79
2022-12-24T06:06:06.436Z,89.96
2022-12-24T06:08:34.126Z,88.96
2022-12-24T06:11:03.088Z,89.31
2022-12-24T06:13:30.617Z,89.39
2022-12-24T06:15:59.122Z,89.36
2022-12-24T06:18:25.867Z,89.26
2022-12-24T06:20:53.823Z,88.44
2022-12-24T06:23:21.387Z,88.97
2022-12-24T06:25:48.620Z,89.40
2022-12-24T06:28:15.347Z,89.71
2022-12-24T06:30:46.043Z,88.50
2022-12-24T06:33:13.145Z,88.45
2022-12-24T06:35:39.826Z,88.32
2022-12-24T06:38:06.697Z,88.94
2022-12-24T06:40:33.386Z,88.77
2022-12-24T06:43:00.235Z,88.41
2022-12-24T06:45:26.933Z,88.49
2022-12-24T06:47:53.629Z,88.69
2022-12-24T06:50:20.491Z,88.83
2022-12-24T06:52:47.486Z,88.76
2022-12-24T06:55:14.249Z,88.48
2022-12-24T06:57:41.194Z,88.40
2022-12-24T07:00:09.980Z,88.58
2022-12-24T07:02:42.790Z,88.73
2022-12-24T07:05:10.666Z,88.06
2022-12-24T07:07:43.250Z,88.79
2022-12-24T07:10:15.376Z,88.70
2022-12-24T07:12:43.101Z,87.98
2022-12-24T07:15:10.571Z,88.76
2022-12-24T07:17:37.423Z,88.96
2022-12-24T07:20:05.695Z,88.80
2022-12-24T07:22:32.467Z,88.50
2022-12-24T07:24:59.318Z,88.88
2022-12-24T07:27:26.114Z,88.67
2022-12-24T07:29:52.769Z,88.12
2022-12-24T07:32:20.591Z,88.82
2022-12-24T07:34:47.302Z,88.31
2022-12-24T07:37:14.185Z,88.27
2022-12-24T07:39:40.917Z,88.55
2022-12-24T07:42:08.580Z,88.45
2022-12-24T07:44:35.875Z,88.16
2022-12-24T07:47:02.812Z,88.94
2022-12-24T07:49:29.857Z,88.00
2022-12-24T07:51:56.681Z,88.40
2022-12-24T07:54:23.441Z,88.20
2022-12-24T07:56:50.304Z,87.40
2022-12-24T07:59:17.005Z,87.99
2022-12-24T08:01:44.026Z,87.81
2022-12-24T08:04:11.057Z,88.04
2022-12-24T08:06:38.196Z,87.58
2022-12-24T08:09:05.204Z,87.96
2022-12-24T08:11:32.252Z,88.38
2022-12-24T08:13:58.983Z,87.61
2022-12-24T08:16:25.929Z,87.77
2022-12-24T08:18:52.649Z,87.36
2022-12-24T08:21:19.443Z,87.42
2022-12-24T08:23:46.974Z,87.76
2022-12-24T08:26:13.886Z,87.37
2022-12-24T08:28:41.098Z,88.02
2022-12-24T08:31:07.857Z,88.22
2022-12-24T08:33:34.849Z,87.40
2022-12-24T08:36:02.200Z,87.62
2022-12-24T08:38:29.465Z,87.56
2022-12-24T08:40:56.580Z,87.83
2022-12-24T08:43:23.565Z,87.59
2022-12-24T08:45:50.547Z,87.55
2022-12-24T08:48:17.587Z,87.59
2022-12-24T08:50:44.784Z,88.27
2022-12-24T08:53:11.999Z,88.07
2022-12-24T08:55:39.698Z,88.09
2022-12-24T08:58:06.625Z,88.51
2022-12-24T09:00:33.383Z,88.50
2022-12-24T09:03:00.093Z,88.46
2022-12-24T09:05:27.227Z,87.79
2022-12-24T09:07:53.924Z,88.77
2022-12-24T09:10:21.164Z,88.70
2022-12-24T09:12:47.953Z,88.73
2022-12-24T09:15:14.987Z,88.29
2022-12-24T09:17:42.203Z,88.25
2022-12-24T09:20:09.875Z,88.29
2022-12-24T09:22:38.537Z,88.34
2022-12-24T09:25:10.712Z,88.36
2022-12-24T09:27:37.889Z,88.20
2022-12-24T09:30:06.771Z,88.04
2022-12-24T09:32:34.258Z,88.08
2022-12-24T09:35:01.172Z,87.79
2022-12-24T09:37:27.940Z,88.18
2022-12-24T09:39:54.628Z,88.36
2022-12-24T09:42:51.481Z,88.29
2022-12-24T09:45:35.439Z,88.79
2022-12-24T09:48:11.911Z,88.99
2022-12-24T09:50:53.539Z,88.50
2022-12-24T09:53:29.511Z,88.12
2022-12-24T09:56:01.759Z,87.93
2022-12-24T09:58:36.040Z,88.06
2022-12-24T10:01:03.522Z,87.42
2022-12-24T10:03:31.187Z,87.18
2022-12-24T10:06:24.979Z,86.72
2022-12-24T10:09:21.361Z,86.12
2022-12-24T10:12:01.615Z,85.96
2022-12-24T10:14:41.340Z,85.78
2022-12-24T10:17:23.024Z,85.62
2022-12-24T10:19:58.933Z,85.70
2022-12-24T10:23:02.553Z,86.14
2022-12-24T10:25:34.533Z,85.92
2022-12-24T10:28:03.341Z,86.27
2022-12-24T10:30:30.164Z,85.97
2022-12-24T10:32:56.974Z,85.48
2022-12-24T10:35:27.226Z,85.83
2022-12-24T10:37:54.161Z,85.52
2022-12-24T10:40:42.631Z,85.38
2022-12-24T10:43:21.544Z,85.55
2022-12-24T10:45:50.863Z,85.43
2022-12-24T10:48:24.437Z,86.06
2022-12-24T10:51:15.028Z,85.82
2022-12-24T10:53:59.366Z,85.09
2022-12-24T10:56:26.120Z,84.54
2022-12-24T10:58:54.326Z,83.73
2022-12-24T11:01:21.909Z,83.33
2022-12-24T11:04:01.227Z,84.03
2022-12-24T11:06:28.082Z,83.11
2022-12-24T11:09:13.071Z,83.90
2022-12-24T11:11:39.824Z,83.77
2022-12-24T11:14:15.059Z,82.49
2022-12-24T11:16:49.508Z,82.60
2022-12-24T11:19:19.588Z,82.53
2022-12-24T11:21:46.482Z,83.63
2022-12-24T11:24:13.308Z,83.47
2022-12-24T11:26:44.074Z,83.56
2022-12-24T11:29:19.522Z,83.92
2022-12-24T11:31:48.151Z,84.58
2022-12-24T11:34:30.328Z,85.04
2022-12-24T11:37:19.439Z,84.60
2022-12-24T11:39:54.508Z,84.53
2022-12-24T11:42:24.312Z,83.81
2022-12-24T11:44:51.483Z,84.11
2022-12-24T11:47:18.403Z,84.61
2022-12-24T11:49:46.155Z,84.75
2022-12-24T11:52:12.774Z,84.77
2022-12-24T11:55:00.868Z,85.55
2022-12-24T11:58:00.963Z,85.65
2022-12-24T12:00:28.863Z,86.00
2022-12-24T12:02:57.475Z,85.73
2022-12-24T12:05:28.071Z,85.95
2022-12-24T12:07:58.720Z,85.72
2022-12-24T12:10:28.939Z,85.23
2022-12-24T12:13:18.004Z,84.88
2022-12-24T12:15:52.319Z,84.88
2022-12-24T12:18:25.692Z,84.96
2022-12-24T12:20:56.837Z,85.27
2022-12-24T12:23:31.005Z,85.79
2022-12-24T12:25:57.744Z,85.76
2022-12-24T12:28:47.462Z,85.54
2022-12-24T12:31:27.984Z,86.57
2022-12-24T12:34:00.623Z,86.38
2022-12-24T12:36:41.637Z,86.33
2022-12-24T12:39:09.907Z,86.14
2022-12-24T12:41:45.797Z,86.18
2022-12-24T12:44:27.985Z,85.84
2022-12-24T12:47:37.307Z,85.82
2022-12-24T12:50:12.911Z,85.60
2022-12-24T12:53:23.326Z,85.50
2022-12-24T12:56:20.663Z,85.86
2022-12-24T12:59:18.329Z,86.11
2022-12-24T13:02:02.018Z,86.68
2022-12-24T13:04:44.084Z,86.40
2022-12-24T13:07:26.271Z,86.43
2022-12-24T13:10:01.815Z,86.29
2022-12-24T13:12:57.748Z,86.09
2022-12-24T13:15:43.163Z,85.62
2022-12-24T13:18:21.656Z,85.71
2022-12-24T13:20:49.997Z,85.56
2022-12-24T13:23:24.992Z,85.09
2022-12-24T13:25:54.207Z,85.43
2022-12-24T13:28:24.322Z,84.68
2022-12-24T13:31:13.942Z,85.36
2022-12-24T13:33:41.619Z,84.75
2022-12-24T13:36:19.099Z,84.58
2022-12-24T13:38:58.533Z,85.55
2022-12-24T13:41:42.033Z,84.97
2022-12-24T13:44:21.023Z,85.17
2022-12-24T13:47:00.816Z,85.72
2022-12-24T13:49:39.837Z,85.23
2022-12-24T13:52:12.840Z,84.78
2022-12-24T13:54:55.045Z,85.18
2022-12-24T13:57:38.590Z,85.34
2022-12-24T14:00:23.078Z,86.04
2022-12-24T14:03:24.288Z,86.26
2022-12-24T14:05:55.800Z,86.96
2022-12-24T14:08:22.697Z,85.91
2022-12-24T14:10:58.624Z,86.54
2022-12-24T14:13:52.449Z,86.10
2022-12-24T14:16:21.717Z,86.60
2022-12-24T14:19:04.722Z,85.70
2022-12-24T14:21:50.398Z,86.04
2022-12-24T14:24:21.164Z,86.56
2022-12-24T14:26:52.474Z,86.67
2022-12-24T14:29:40.464Z,87.17
2022-12-24T14:32:13.789Z,86.73
2022-12-24T14:34:41.042Z,87.25
2022-12-24T14:37:12.475Z,87.73
2022-12-24T14:39:43.493Z,87.29
2022-12-24T14:42:13.430Z,87.14
2022-12-24T14:44:59.238Z,88.20
2022-12-24T14:47:31.227Z,87.33
2022-12-24T14:50:05.454Z,87.66
2022-12-24T14:53:04.664Z,88.63
2022-12-24T14:55:40.580Z,88.29
2022-12-24T14:58:25.919Z,88.35
2022-12-24T15:00:54.122Z,87.74
2022-12-24T15:03:24.389Z,88.21
2022-12-24T15:06:03.875Z,88.65
2022-12-24T15:08:33.846Z,88.37
2022-12-24T15:11:04.597Z,88.21
2022-12-24T15:13:46.327Z,87.73
2022-12-24T15:16:15.859Z,88.12
2022-12-24T15:18:47.987Z,87.36
2022-12-24T15:21:30.250Z,87.60
2022-12-24T15:23:57.776Z,88.31
2022-12-24T15:26:26.290Z,87.96
2022-12-24T15:29:01.878Z,88.42
2022-12-24T15:31:30.400Z,88.50
2022-12-24T15:33:59.707Z,88.45
2022-12-24T15:36:26.657Z,89.09
2022-12-24T15:38:55.196Z,88.68
2022-12-24T15:41:27.380Z,88.10
2022-12-24T15:43:55.838Z,88.77
2022-12-24T15:46:25.693Z,89.53
2022-12-24T15:48:54.457Z,88.89
2022-12-24T15:51:31.069Z,89.36
2022-12-24T15:54:13.067Z,90.21
2022-12-24T15:56:44.092Z,89.20
2022-12-24T15:59:20.130Z,88.49
2022-12-24T16:01:47.970Z,89.32
2022-12-24T16:04:26.854Z,90.02
2022-12-24T16:07:03.436Z,89.82
2022-12-24T16:09:43.352Z,90.04
2022-12-24T16:12:24.897Z,90.64
2022-12-24T16:14:55.820Z,90.70
2022-12-24T16:17:26.009Z,90.31
2022-12-24T16:20:01.083Z,91.20
2022-12-24T16:22:37.223Z,90.69
2022-12-24T16:25:26.764Z,91.96
2022-12-24T16:27:57.215Z,91.38
2022-12-24T16:30:26.938Z,91.57
2022-12-24T16:32:53.755Z,91.66
2022-12-24T16:35:26.738Z,91.53
2022-12-24T16:37:55.095Z,91.45
2022-12-24T16:40:27.243Z,91.61
2022-12-24T16:43:15.388Z,92.04
2022-12-24T16:45:43.427Z,91.97
2022-12-24T16:48:18.749Z,92.88
2022-12-24T16:50:45.782Z,92.49
2022-12-24T16:53:17.720Z,93.18
2022-12-24T16:55:46.043Z,93.11
2022-12-24T16:58:14.461Z,93.56
2022-12-24T17:00:42.129Z,94.21
2022-12-24T17:03:09.327Z,94.24
2022-12-24T17:05:44.448Z,94.27
2022-12-24T17:08:11.855Z,94.48
2022-12-24T17:10:39.509Z,94.80
2022-12-24T17:13:07.506Z,93.72
2022-12-24T17:15:35.420Z,94.17
2022-12-24T17:18:02.530Z,94.14
2022-12-24T17:20:29.707Z,94.16
2022-12-24T17:22:56.952Z,93.56
2022-12-24T17:25:23.989Z,93.45
2022-12-24T17:27:51.408Z,93.31
2022-12-24T17:30:18.389Z,93.00
2022-12-24T17:32:45.439Z,93.42
2022-12-24T17:35:12.395Z,93.72
2022-12-24T17:37:39.592Z,93.59
2022-12-24T17:40:07.839Z,93.53
2022-12-24T17:42:35.480Z,94.26
2022-12-24T17:45:02.708Z,95.49
2022-12-24T17:47:30.282Z,95.18
2022-12-24T17:49:57.458Z,95.13
2022-12-24T17:52:24.405Z,94.62
2022-12-24T17:54:51.491Z,95.43
2022-12-24T17:57:18.346Z,95.20
2022-12-24T17:59:45.234Z,95.09
2022-12-24T18:02:13.202Z,94.91
2022-12-24T18:04:40.499Z,95.10
2022-12-24T18:07:07.506Z,94.96
2022-12-24T18:09:34.872Z,95.49
2022-12-24T18:12:01.993Z,95.14
2022-12-24T18:14:29.053Z,94.76
2022-12-24T18:16:56.095Z,94.83
2022-12-24T18:19:23.158Z,94.51
2022-12-24T18:21:50.276Z,95.23
2022-12-24T18:24:17.614Z,94.86
2022-12-24T18:26:46.088Z,94.62
2022-12-24T18:29:13.669Z,94.66
2022-12-24T18:31:42.057Z,95.18
2022-12-24T18:34:13.679Z,94.49
2022-12-24T18:36:41.093Z,95.32
2022-12-24T18:39:08.083Z,95.28
2022-12-24T18:41:36.129Z,94.75
2022-12-24T18:44:03.209Z,94.76
2022-12-24T18:46:33.148Z,95.50
2022-12-24T18:49:01.104Z,94.93
2022-12-24T18:51:31.157Z,95.82
2022-12-24T18:53:58.339Z,94.68
2022-12-24T18:56:26.888Z,95.04
2022-12-24T18:58:57.357Z,94.85
2022-12-24T19:01:29.769Z,95.06
2022-12-24T19:03:57.398Z,94.89
2022-12-24T19:06:24.992Z,94.51
2022-12-24T19:09:01.268Z,94.41
2022-12-24T19:11:33.249Z,93.54
2022-12-24T19:14:01.387Z,94.04
2022-12-24T19:16:30.637Z,95.00
2022-12-24T19:18:58.001Z,94.14
2022-12-24T19:21:24.989Z,94.14
2022-12-24T19:23:52.244Z,94.32
2022-12-24T19:26:20.341Z,94.64
2022-12-24T19:28:47.726Z,94.49
2022-12-24T19:31:21.309Z,94.52
2022-12-24T19:33:54.192Z,94.09
2022-12-24T19:36:23.926Z,94.22
2022-12-24T19:38:51.114Z,93.64
2022-12-24T19:41:26.683Z,94.82
2022-12-24T19:43:55.723Z,94.34
2022-12-24T19:46:28.466Z,94.53
2022-12-24T19:48:58.353Z,94.07
2022-12-24T19:51:26.985Z,94.68
2022-12-24T19:53:58.328Z,94.16
2022-12-24T19:56:27.034Z,94.28
2022-12-24T19:58:55.688Z,94.47
2022-12-24T20:01:25.214Z,94.26
2022-12-24T20:03:53.458Z,95.73
2022-12-24T20:06:23.431Z,95.55
2022-12-24T20:08:50.944Z,95.05
2022-12-24T20:11:20.438Z,94.75
2022-12-24T20:13:47.433Z,94.63
2022-12-24T20:16:17.342Z,94.98
2022-12-24T20:18:44.903Z,93.74
2022-12-24T20:21:13.488Z,94.11
2022-12-24T20:23:41.106Z,94.74
2022-12-24T20:26:10.721Z,94.61
2022-12-24T20:28:37.842Z,94.30
2022-12-24T20:31:15.813Z,94.62
2022-12-24T20:33:44.544Z,94.51
2022-12-24T20:36:13.100Z,94.78
2022-12-24T20:38:40.329Z,94.82
2022-12-24T20:41:09.925Z,94.87
2022-12-24T20:43:45.089Z,94.40
2022-12-24T20:46:15.094Z,94.79
2022-12-24T20:48:42.600Z,95.03
2022-12-24T20:51:16.089Z,95.14
2022-12-24T20:53:48.301Z,94.88
2022-12-24T20:56:18.570Z,95.05
2022-12-24T20:58:46.491Z,94.07
2022-12-24T21:01:17.402Z,94.45
2022-12-24T21:03:45.173Z,94.36
2022-12-24T21:06:12.948Z,94.29
2022-12-24T21:08:39.936Z,94.39
2022-12-24T21:11:25.889Z,94.53
2022-12-24T21:13:52.996Z,94.50
2022-12-24T21:16:20.102Z,95.12
2022-12-24T21:18:47.670Z,94.37
2022-12-24T21:21:14.746Z,94.62
2022-12-24T21:23:42.098Z,95.21
2022-12-24T21:26:09.737Z,94.78
2022-12-24T21:28:36.673Z,94.34
2022-12-24T21:31:09.536Z,94.48
2022-12-24T21:33:38.462Z,94.35
2022-12-24T21:36:06.344Z,95.17
2022-12-24T21:38:34.464Z,95.00
2022-12-24T21:41:12.693Z,94.44
2022-12-24T21:43:39.885Z,95.19
2022-12-24T21:46:11.730Z,94.53
2022-12-24T21:48:58.039Z,94.79
2022-12-24T21:51:26.969Z,94.33
2022-12-24T21:54:12.795Z,94.77
2022-12-24T21:56:58.428Z,94.81
2022-12-24T21:59:27.004Z,95.18
2022-12-24T22:01:55.006Z,94.41
2022-12-24T22:04:23.575Z,94.81
2022-12-24T22:07:09.033Z,94.75
2022-12-24T22:09:57.743Z,94.68
2022-12-24T22:12:25.839Z,94.35
2022-12-24T22:14:52.878Z,94.49
2022-12-24T22:17:25.179Z,94.99
2022-12-24T22:19:53.929Z,94.56
2022-12-24T22:22:21.603Z,94.97
2022-12-24T22:24:48.663Z,94.74
2022-12-24T22:27:15.686Z,94.30
2022-12-24T22:29:42.617Z,94.94
2022-12-24T22:32:09.725Z,94.53
2022-12-24T22:34:36.908Z,95.26
2022-12-24T22:37:03.991Z,94.64
2022-12-24T22:39:30.975Z,94.09
2022-12-24T22:42:00.622Z,94.49
2022-12-24T22:44:27.912Z,94.37
2022-12-24T22:46:54.933Z,95.06
2022-12-24T22:49:22.463Z,95.16
2022-12-24T22:51:49.606Z,95.06
2022-12-24T22:54:16.584Z,94.20
2022-12-24T22:56:43.819Z,94.25
2022-12-24T22:59:14.176Z,94.29
2022-12-24T23:01:44.163Z,94.22
2022-12-24T23:04:12.195Z,95.01
2022-12-24T23:06:39.847Z,94.60
2022-12-24T23:09:09.236Z,94.86
2022-12-24T23:11:36.679Z,94.35
2022-12-24T23:14:22.577Z,94.90
2022-12-24T23:16:49.648Z,93.94
2022-12-24T23:19:16.571Z,94.74
2022-12-24T23:21:43.685Z,93.53
2022-12-24T23:24:11.436Z,94.07
2022-12-24T23:26:38.616Z,94.18
2022-12-24T23:29:05.675Z,94.12
2022-12-24T23:31:35.063Z,93.97
2022-12-24T23:34:02.535Z,93.78
2022-12-24T23:36:29.724Z,93.44
2022-12-24T23:38:57.831Z,93.82
2022-12-24T23:41:25.089Z,93.43
2022-12-24T23:43:52.912Z,93.70
2022-12-24T23:46:20.981Z,93.60
2022-12-24T23:48:48.381Z,92.79
2022-12-24T23:51:19.337Z,93.61
2022-12-24T23:53:46.666Z,93.67
2022-12-24T23:56:14.647Z,93.43
2022-12-24T23:58:42.347Z,93.66
